Time;durP1;ratioP1;P1;durP2;ratioP2;P2;SDS_P1;SDS_P2;PMS_P1;PMS_P2;Temp;Humidity;BMP_temperature;BMP_pressure;BME280_temperature;BME280_humidity;BME280_pressure;Samples;Min_cycle;Max_cycle;Signal;HPM_P1;HPM_P2
2021/09/10 00:02:02;;;;;;;8.40;7.63;;;;;;;17.22;93.71;98022.22;5071633;28;20696;-65
2021/09/10 00:04:29;;;;;;;9.50;7.47;;;;;;;17.17;94.69;98029.84;5073539;28;20207;-66
2021/09/10 00:06:55;;;;;;;8.83;7.93;;;;;;;17.12;95.79;98025.94;5073471;28;20207;-65
2021/09/10 00:09:22;;;;;;;8.83;7.90;;;;;;;17.05;96.69;98025.69;5073578;28;20572;-65
2021/09/10 00:11:48;;;;;;;9.53;8.53;;;;;;;17.01;97.84;98029.63;5072821;28;20214;-65
2021/09/10 00:14:15;;;;;;;9.63;8.40;;;;;;;16.92;98.58;98027.00;5072993;28;20695;-66
2021/09/10 00:16:41;;;;;;;9.03;8.13;;;;;;;16.85;100.00;98034.78;5073185;28;20243;-66
2021/09/10 00:19:09;;;;;;;9.80;8.80;;;;;;;16.78;100.00;98033.69;5073238;28;20215;-66
2021/09/10 00:21:36;;;;;;;9.67;8.63;;;;;;;16.71;100.00;98035.25;5073210;28;20207;-65
2021/09/10 00:24:02;;;;;;;9.83;8.83;;;;;;;16.65;100.00;98043.84;5072793;28;20235;-65
2021/09/10 00:26:28;;;;;;;9.80;8.67;;;;;;;16.58;100.00;98029.41;5071822;28;20219;-65
2021/09/10 00:28:55;;;;;;;9.77;8.87;;;;;;;16.52;100.00;98032.66;5073253;28;20218;-66
2021/09/10 00:31:21;;;;;;;9.73;8.73;;;;;;;16.52;100.00;98037.16;5072966;28;20211;-65
2021/09/10 00:33:48;;;;;;;9.67;8.60;;;;;;;16.48;100.00;98035.75;5073040;28;20688;-66
2021/09/10 00:36:16;;;;;;;9.70;8.67;;;;;;;16.43;100.00;98032.66;5072960;28;20262;-68
2021/09/10 00:38:42;;;;;;;10.00;9.00;;;;;;;16.38;100.00;98037.59;5073039;28;20215;-68
2021/09/10 00:41:09;;;;;;;9.27;8.37;;;;;;;16.35;100.00;98036.03;5073055;28;20211;-68
2021/09/10 00:43:35;;;;;;;9.60;8.70;;;;;;;16.34;100.00;98031.69;5073192;28;20214;-66
2021/09/10 00:46:01;;;;;;;10.33;9.30;;;;;;;16.32;100.00;98036.31;5073024;28;20234;-66
2021/09/10 00:48:29;;;;;;;10.53;9.17;;;;;;;16.34;100.00;98029.00;5073004;28;20216;-66
2021/09/10 00:50:56;;;;;;;10.97;9.10;;;;;;;16.33;100.00;98027.31;5072959;28;20208;-66
2021/09/10 00:53:26;;;;;;;9.30;8.40;;;;;;;16.35;100.00;98037.88;5071550;28;20215;-66
2021/09/10 00:55:53;;;;;;;9.77;8.87;;;;;;;16.33;100.00;98032.66;5072953;28;20650;-66
2021/09/10 00:58:19;;;;;;;10.53;9.40;;;;;;;16.34;100.00;98034.34;5072747;28;20211;-66
2021/09/10 01:00:46;;;;;;;10.47;9.37;;;;;;;16.36;100.00;98026.19;5067984;28;20669;-67
2021/09/10 01:03:12;;;;;;;10.50;8.93;;;;;;;16.39;100.00;98040.13;5061172;28;20610;-67
2021/09/10 01:05:42;;;;;;;11.07;9.97;;;;;;;16.40;100.00;98039.13;5059912;28;20220;-67
2021/09/10 01:08:10;;;;;;;11.00;9.90;;;;;;;16.39;100.00;98032.13;5068895;28;20235;-67
2021/09/10 01:10:39;;;;;;;10.70;9.60;;;;;;;16.39;100.00;98032.13;5057366;28;20211;-67
2021/09/10 01:13:06;;;;;;;10.73;9.63;;;;;;;16.38;100.00;98035.78;5072767;28;20211;-67
2021/09/10 01:15:33;;;;;;;10.70;9.60;;;;;;;16.37;100.00;98034.06;5072490;28;20223;-67
2021/09/10 01:17:59;;;;;;;11.60;10.30;;;;;;;16.35;100.00;98035.19;5072704;28;20207;-67
2021/09/10 01:20:26;;;;;;;12.20;9.83;;;;;;;16.32;100.00;98030.13;5071023;28;20215;-68
2021/09/10 01:22:52;;;;;;;10.77;9.67;;;;;;;16.27;100.00;98032.41;5072400;28;20211;-68
2021/09/10 01:25:21;;;;;;;10.43;9.43;;;;;;;16.22;100.00;98032.81;5075931;28;20719;-66
2021/09/10 01:27:51;;;;;;;10.53;9.53;;;;;;;16.19;100.00;98033.13;5076223;28;20208;-67
2021/09/10 01:30:19;;;;;;;11.23;9.53;;;;;;;16.19;100.00;98032.28;5076661;28;20204;-67
2021/09/10 01:32:46;;;;;;;11.53;10.40;;;;;;;16.27;100.00;98032.41;5076716;28;20203;-67
2021/09/10 01:35:14;;;;;;;10.67;9.57;;;;;;;16.29;100.00;98031.28;5076342;28;20214;-67
2021/09/10 01:37:40;;;;;;;11.97;10.03;;;;;;;16.33;100.00;98027.31;5075962;28;20231;-67
2021/09/10 01:40:10;;;;;;;10.80;9.70;;;;;;;16.33;100.00;98032.66;5076222;28;20217;-67
2021/09/10 01:42:38;;;;;;;11.07;9.97;;;;;;;16.28;100.00;98040.25;5075813;28;20207;-67
2021/09/10 01:45:07;;;;;;;11.87;10.67;;;;;;;16.24;100.00;98033.53;5074231;28;20215;-67
2021/09/10 01:47:35;;;;;;;12.23;10.87;;;;;;;16.17;100.00;98035.09;5076086;28;20234;-66
2021/09/10 01:50:02;;;;;;;12.40;10.80;;;;;;;16.13;100.00;98028.38;5075904;28;20215;-67
2021/09/10 01:52:29;;;;;;;12.17;10.57;;;;;;;16.08;100.00;98036.94;5075755;28;20207;-66
2021/09/10 01:54:55;;;;;;;11.57;10.47;;;;;;;16.00;100.00;98032.31;5075671;28;20700;-66
2021/09/10 01:57:22;;;;;;;12.33;10.93;;;;;;;15.95;100.00;98033.72;5075884;28;20246;-66
2021/09/10 01:59:49;;;;;;;11.83;10.63;;;;;;;15.92;100.00;98036.66;5075913;28;20208;-66
2021/09/10 02:02:16;;;;;;;11.07;9.90;;;;;;;15.92;100.00;98026.00;5075986;28;20218;-66
2021/09/10 02:04:43;;;;;;;11.17;9.80;;;;;;;15.96;100.00;98027.41;5076088;28;20234;-66
2021/09/10 02:07:09;;;;;;;11.10;9.97;;;;;;;15.98;100.00;98026.28;5075511;28;20208;-66
2021/09/10 02:09:36;;;;;;;11.80;10.60;;;;;;;16.04;100.00;98028.38;5075385;28;20218;-66
2021/09/10 02:12:04;;;;;;;11.97;10.17;;;;;;;16.08;100.00;98023.59;5073653;28;20727;-66
2021/09/10 02:14:31;;;;;;;11.13;9.90;;;;;;;16.13;100.00;98027.50;5075405;28;20219;-66
2021/09/10 02:16:59;;;;;;;12.23;10.90;;;;;;;16.21;100.00;98027.66;5075749;28;20237;-66
2021/09/10 02:19:25;;;;;;;12.77;11.13;;;;;;;16.28;100.00;98029.59;5075318;28;20207;-66
2021/09/10 02:21:52;;;;;;;11.17;10.07;;;;;;;16.28;100.00;98024.25;5075212;28;20211;-66
2021/09/10 02:24:19;;;;;;;10.90;9.80;;;;;;;16.30;100.00;98027.63;5075549;28;20231;-66
2021/09/10 02:26:45;;;;;;;13.87;10.23;;;;;;;16.29;100.00;98028.63;5075306;28;20214;-66
2021/09/10 02:29:12;;;;;;;10.70;9.60;;;;;;;16.28;100.00;98018.91;5075354;28;20218;-66
2021/09/10 02:31:40;;;;;;;10.30;9.30;;;;;;;16.24;100.00;98022.03;5074904;28;20212;-66
2021/09/10 02:34:08;;;;;;;11.80;10.60;;;;;;;16.19;100.00;98024.28;5075147;28;20218;-66
2021/09/10 02:36:35;;;;;;;10.80;9.70;;;;;;;16.14;100.00;98031.84;5074007;28;20235;-66
2021/09/10 02:39:01;;;;;;;10.67;9.67;;;;;;;16.13;100.00;98029.34;5074655;28;20265;-66
2021/09/10 02:41:28;;;;;;;11.63;10.43;;;;;;;16.11;100.00;98026.81;5075031;28;20679;-66
2021/09/10 02:43:54;;;;;;;11.40;10.30;;;;;;;16.08;100.00;98025.28;5075004;28;20211;-66
2021/09/10 02:46:21;;;;;;;12.40;11.10;;;;;;;16.12;100.00;98033.81;5074698;28;20215;-66
2021/09/10 02:48:47;;;;;;;10.77;9.67;;;;;;;16.14;100.00;98042.50;5074660;28;20203;-66
2021/09/10 02:51:15;;;;;;;11.13;10.03;;;;;;;16.14;100.00;98040.72;5074543;28;20203;-66
2021/09/10 02:53:42;;;;;;;10.77;9.67;;;;;;;16.12;100.00;98033.00;5074801;28;20212;-66
2021/09/10 02:56:08;;;;;;;11.93;10.37;;;;;;;16.13;100.00;98034.69;5074346;28;20238;-66
2021/09/10 02:58:35;;;;;;;11.27;9.60;;;;;;;16.13;100.00;98031.03;5074696;28;20207;-65
2021/09/10 03:01:01;;;;;;;11.30;10.10;;;;;;;16.18;100.00;98034.13;5074615;28;20212;-66
2021/09/10 03:03:28;;;;;;;12.37;10.33;;;;;;;16.23;100.00;98031.88;5073004;28;20215;-66
2021/09/10 03:05:54;;;;;;;11.73;10.53;;;;;;;16.33;100.00;98027.31;5074550;28;20214;-66
2021/09/10 03:08:23;;;;;;;11.83;10.63;;;;;;;16.42;100.00;98023.84;5074450;28;20214;-66
2021/09/10 03:10:49;;;;;;;11.30;10.10;;;;;;;16.49;100.00;98022.28;5074146;28;20677;-66
2021/09/10 03:13:16;;;;;;;11.33;10.20;;;;;;;16.55;100.00;98029.69;5074302;28;20290;-66
2021/09/10 03:15:43;;;;;;;11.40;10.30;;;;;;;16.61;100.00;98022.94;5074339;28;20204;-66
2021/09/10 03:18:09;;;;;;;11.67;10.17;;;;;;;16.65;100.00;98027.00;5074140;28;20226;-66
2021/09/10 03:20:36;;;;;;;11.40;10.17;;;;;;;16.69;100.00;98031.88;5074249;28;20208;-66
2021/09/10 03:23:03;;;;;;;11.97;10.67;;;;;;;16.72;100.00;98026.28;5074182;28;20212;-66
2021/09/10 03:25:31;;;;;;;12.83;10.10;;;;;;;16.77;100.00;98023.16;5074382;28;20232;-66
2021/09/10 03:27:57;;;;;;;11.73;10.53;;;;;;;16.79;100.00;98023.84;5073742;28;20211;-66
2021/09/10 03:30:24;;;;;;;11.67;10.47;;;;;;;16.78;100.00;98023.03;5072147;28;20200;-66
2021/09/10 03:32:50;;;;;;;12.60;11.30;;;;;;;16.78;100.00;98023.03;5074099;28;20207;-66
2021/09/10 03:35:17;;;;;;;12.63;11.33;;;;;;;16.77;100.00;98015.97;5074207;28;20214;-66
2021/09/10 03:37:43;;;;;;;12.43;10.70;;;;;;;16.75;100.00;98017.97;5073491;28;20712;-66
2021/09/10 03:40:11;;;;;;;13.43;10.57;;;;;;;16.71;100.00;98019.22;5073619;28;20290;-66
2021/09/10 03:42:39;;;;;;;10.90;9.80;;;;;;;16.63;100.00;98013.78;5073778;28;20204;-66
2021/09/10 03:45:06;;;;;;;11.13;10.03;;;;;;;16.52;100.00;98013.97;5073827;28;20214;-66
2021/09/10 03:47:33;;;;;;;10.37;9.20;;;;;;;16.41;100.00;98008.81;5072794;28;20207;-66
2021/09/10 03:49:59;;;;;;;9.73;8.80;;;;;;;16.34;100.00;98001.50;5073468;28;20211;-65
2021/09/10 03:52:26;;;;;;;9.37;8.50;;;;;;;16.25;100.00;98002.38;5073655;28;20222;-66
2021/09/10 03:54:52;;;;;;;11.00;9.87;;;;;;;16.20;100.00;98001.94;5071825;28;20207;-66
2021/09/10 03:57:19;;;;;;;10.87;9.77;;;;;;;16.15;100.00;98007.72;5073595;28;20227;-66
2021/09/10 03:59:46;;;;;;;10.77;9.67;;;;;;;16.09;100.00;98008.28;5073511;28;20211;-66
2021/09/10 04:02:13;;;;;;;10.70;9.60;;;;;;;16.08;100.00;98011.94;5073407;28;20207;-66
2021/09/10 04:04:39;;;;;;;10.17;9.07;;;;;;;16.06;100.00;98006.91;5073530;28;20211;-66
2021/09/10 04:07:06;;;;;;;9.83;8.80;;;;;;;16.02;100.00;98009.84;5073429;28;20208;-66
2021/09/10 04:09:32;;;;;;;11.37;9.70;;;;;;;15.98;100.00;98000.44;5073486;28;20214;-66
2021/09/10 04:11:59;;;;;;;11.17;10.07;;;;;;;15.96;100.00;98006.94;5073315;28;20213;-66
2021/09/10 04:14:25;;;;;;;10.47;9.37;;;;;;;15.95;100.00;98007.06;5073365;28;20215;-66
2021/09/10 04:16:53;;;;;;;10.47;9.37;;;;;;;15.89;100.00;98003.13;5073340;28;20234;-66
2021/09/10 04:19:20;;;;;;;10.40;9.40;;;;;;;15.85;100.00;98008.88;5073373;28;20207;-66
2021/09/10 04:21:46;;;;;;;10.10;9.17;;;;;;;15.79;100.00;98009.44;5072068;28;20214;-66
2021/09/10 04:24:17;;;;;;;11.27;10.17;;;;;;;15.77;100.00;98003.44;5073041;28;20607;-66
2021/09/10 04:26:43;;;;;;;10.53;9.47;;;;;;;15.75;100.00;98005.38;5073640;28;20208;-66
2021/09/10 04:29:10;;;;;;;12.13;10.07;;;;;;;15.72;100.00;98003.00;5073685;28;20207;-66
2021/09/10 04:31:36;;;;;;;12.47;11.17;;;;;;;15.69;100.00;98008.59;5073074;28;20211;-66
2021/09/10 04:34:04;;;;;;;11.23;10.13;;;;;;;15.70;100.00;98012.97;5073115;28;20204;-66
2021/09/10 04:36:30;;;;;;;11.07;10.07;;;;;;;15.69;100.00;98004.13;5072721;28;20553;-66
2021/09/10 04:38:57;;;;;;;10.43;9.43;;;;;;;15.66;100.00;98008.91;5073122;28;20548;-66
2021/09/10 04:41:23;;;;;;;12.70;10.37;;;;;;;15.69;100.00;98008.59;5073180;28;20570;-66
2021/09/10 04:43:50;;;;;;;11.43;10.30;;;;;;;15.65;100.00;98001.88;5073126;28;20211;-66
2021/09/10 04:46:16;;;;;;;12.07;10.77;;;;;;;15.67;100.00;98011.44;5073102;28;20215;-66
2021/09/10 04:48:43;;;;;;;12.70;11.40;;;;;;;15.65;100.00;98012.53;5071219;28;20234;-66
2021/09/10 04:51:11;;;;;;;12.37;11.07;;;;;;;15.68;100.00;98012.25;5072977;28;20265;-66
2021/09/10 04:53:39;;;;;;;12.80;11.50;;;;;;;15.67;100.00;98014.09;5073008;28;20203;-66
2021/09/10 04:56:06;;;;;;;11.73;10.53;;;;;;;15.70;100.00;98016.47;5072901;28;20246;-66
2021/09/10 04:58:33;;;;;;;12.40;11.20;;;;;;;15.74;100.00;98015.22;5074892;28;20822;-66
2021/09/10 05:01:00;;;;;;;12.27;11.00;;;;;;;15.81;100.00;98019.00;5077349;28;20221;-66
2021/09/10 05:03:26;;;;;;;12.30;11.10;;;;;;;15.85;100.00;98020.41;5077199;28;20214;-66
2021/09/10 05:05:52;;;;;;;13.50;10.93;;;;;;;15.91;100.00;98013.66;5076844;28;20219;-66
2021/09/10 05:08:20;;;;;;;12.73;11.43;;;;;;;15.95;100.00;98015.88;5076572;28;20207;-66
2021/09/10 05:10:47;;;;;;;12.27;11.00;;;;;;;15.98;100.00;98016.44;5076885;28;20211;-66
2021/09/10 05:13:13;;;;;;;12.53;11.20;;;;;;;16.04;100.00;98012.38;5075170;28;20218;-66
2021/09/10 05:15:40;;;;;;;13.27;11.50;;;;;;;16.07;100.00;98019.25;5076519;28;20579;-66
2021/09/10 05:18:06;;;;;;;12.73;11.43;;;;;;;16.06;100.00;98017.56;5076617;28;20238;-64
2021/09/10 05:20:33;;;;;;;12.00;10.80;;;;;;;16.03;100.00;98024.84;5076679;28;20215;-66
2021/09/10 05:22:59;;;;;;;12.27;10.97;;;;;;;16.02;100.00;98015.19;5076509;28;20208;-67
2021/09/10 05:25:27;;;;;;;14.63;12.17;;;;;;;16.04;100.00;98023.88;5076319;28;20707;-67
2021/09/10 05:27:53;;;;;;;13.53;12.00;;;;;;;16.10;100.00;98030.47;5076365;28;20215;-67
2021/09/10 05:30:20;;;;;;;14.07;12.27;;;;;;;16.13;100.00;98031.03;5076298;28;20204;-67
2021/09/10 05:32:47;;;;;;;13.33;12.03;;;;;;;16.19;100.00;98030.47;5076618;28;20286;-67
2021/09/10 05:35:15;;;;;;;15.33;13.23;;;;;;;16.24;100.00;98033.53;5076207;28;20208;-66
2021/09/10 05:37:41;;;;;;;13.87;12.30;;;;;;;16.31;100.00;98042.66;5076123;28;20284;-67
2021/09/10 05:40:09;;;;;;;13.70;12.30;;;;;;;16.35;100.00;98035.19;5074279;28;20665;-65
2021/09/10 05:42:37;;;;;;;13.77;12.07;;;;;;;16.40;100.00;98046.31;5076172;28;20223;-66
2021/09/10 05:45:05;;;;;;;13.53;12.13;;;;;;;16.46;100.00;98043.06;5076004;28;20215;-67
2021/09/10 05:47:31;;;;;;;12.77;11.47;;;;;;;16.53;100.00;98039.66;5076083;28;20207;-65
2021/09/10 05:49:57;;;;;;;13.03;11.73;;;;;;;16.63;100.00;98040.47;5076115;28;20207;-67
2021/09/10 05:52:24;;;;;;;13.83;11.70;;;;;;;16.71;100.00;98043.25;5076130;28;20565;-65
2021/09/10 05:54:50;;;;;;;14.60;12.23;;;;;;;16.81;100.00;98033.38;5075948;28;20577;-66
2021/09/10 05:57:17;;;;;;;13.63;11.60;;;;;;;16.88;100.00;98039.81;5075820;28;20234;-66
2021/09/10 05:59:45;;;;;;;13.83;12.43;;;;;;;16.95;100.00;98046.25;5075912;28;20218;-67
2021/09/10 06:02:11;;;;;;;12.93;11.63;;;;;;;17.06;100.00;98042.56;5075530;28;20215;-66
2021/09/10 06:04:38;;;;;;;13.00;11.30;;;;;;;17.12;100.00;98037.44;5074110;28;20576;-66
2021/09/10 06:07:04;;;;;;;12.00;10.80;;;;;;;17.17;100.00;98040.53;5075729;28;20212;-66
2021/09/10 06:09:32;;;;;;;13.00;11.17;;;;;;;17.24;100.00;98040.78;5075192;28;20218;-67
2021/09/10 06:11:58;;;;;;;12.23;10.97;;;;;;;17.26;100.00;98046.81;5075777;28;20204;-67
2021/09/10 06:14:25;;;;;;;12.50;10.90;;;;;;;17.25;100.00;98043.28;5075711;28;20204;-67
2021/09/10 06:16:53;;;;;;;11.73;10.53;;;;;;;17.26;100.00;98046.81;5075499;28;20211;-67
2021/09/10 06:19:19;;;;;;;12.17;10.87;;;;;;;17.28;100.00;98059.03;5075388;28;20212;-67
2021/09/10 06:21:45;;;;;;;11.77;10.57;;;;;;;17.28;100.00;98053.69;5075407;28;20211;-67
2021/09/10 06:24:12;;;;;;;11.53;10.33;;;;;;;17.36;100.00;98059.09;5075449;28;20238;-67
2021/09/10 06:26:38;;;;;;;10.87;9.70;;;;;;;17.43;100.00;98056.72;5075032;28;20213;-67
2021/09/10 06:29:05;;;;;;;12.40;11.10;;;;;;;17.50;100.00;98057.81;5075139;28;20672;-66
2021/09/10 06:31:31;;;;;;;12.43;10.53;;;;;;;17.54;100.00;98065.34;5073591;28;20596;-67
2021/09/10 06:33:59;;;;;;;11.03;9.83;;;;;;;17.59;100.00;98063.06;5075264;28;20230;-66
2021/09/10 06:36:26;;;;;;;11.57;10.47;;;;;;;17.64;100.00;98059.94;5075278;28;20207;-66
2021/09/10 06:38:52;;;;;;;10.73;9.73;;;;;;;17.69;100.00;98057.66;5074916;28;20242;-67
2021/09/10 06:41:19;;;;;;;11.13;10.07;;;;;;;17.72;100.00;98063.53;5074925;28;20208;-65
2021/09/10 06:43:45;;;;;;;11.73;10.63;;;;;;;17.74;100.00;98056.19;5075011;28;20222;-67
2021/09/10 06:46:12;;;;;;;11.97;10.87;;;;;;;17.83;100.00;98055.31;5074676;28;20672;-66
2021/09/10 06:48:38;;;;;;;12.53;11.07;;;;;;;17.98;100.00;98058.28;5074895;28;20203;-66
2021/09/10 06:51:06;;;;;;;12.20;10.70;;;;;;;18.09;100.00;98061.56;5074836;28;20226;-66
2021/09/10 06:53:34;;;;;;;12.07;10.87;;;;;;;18.27;100.00;98069.53;5074496;28;20207;-66
2021/09/10 06:56:00;;;;;;;12.47;11.20;;;;;;;18.42;100.00;98063.50;5074410;28;20251;-66
2021/09/10 06:58:27;;;;;;;13.77;10.93;;;;;;;18.57;100.00;98064.63;5072797;28;20235;-67
2021/09/10 07:00:53;;;;;;;11.13;9.93;;;;;;;18.70;100.00;98069.56;5074379;28;20673;-66
2021/09/10 07:03:20;;;;;;;11.07;9.93;;;;;;;18.82;100.00;98074.50;5074576;28;20204;-67
2021/09/10 07:05:46;;;;;;;12.00;10.83;;;;;;;18.95;100.00;98066.88;5074444;28;20222;-66
2021/09/10 07:08:14;;;;;;;11.47;10.37;;;;;;;19.09;99.42;98068.94;5074210;28;20215;-67
2021/09/10 07:10:40;;;;;;;12.37;11.07;;;;;;;19.19;98.49;98064.31;5074421;28;20578;-66
2021/09/10 07:13:07;;;;;;;12.07;10.87;;;;;;;19.36;97.35;98066.09;5074131;28;20225;-67
2021/09/10 07:15:33;;;;;;;12.37;11.07;;;;;;;19.53;96.09;98073.19;5074477;28;20277;-65
2021/09/10 07:18:00;;;;;;;13.73;10.90;;;;;;;19.67;96.16;98072.56;5074407;28;20235;-65
2021/09/10 07:20:26;;;;;;;11.93;10.40;;;;;;;19.76;95.14;98060.81;5074427;28;20219;-65
2021/09/10 07:22:53;;;;;;;11.80;10.47;;;;;;;19.92;93.93;98068.06;5072424;28;20208;-66
2021/09/10 07:25:20;;;;;;;12.83;11.43;;;;;;;20.05;94.13;98061.22;5074328;28;20235;-66
2021/09/10 07:27:47;;;;;;;11.77;10.27;;;;;;;20.17;93.54;98059.91;5074054;28;20237;-66
2021/09/10 07:30:14;;;;;;;12.03;10.50;;;;;;;20.26;92.58;98066.97;5074119;28;20204;-66
2021/09/10 07:32:40;;;;;;;14.33;10.97;;;;;;;20.42;89.45;98071.50;5074096;28;20231;-66
2021/09/10 07:35:08;;;;;;;10.50;9.40;;;;;;;20.54;89.29;98076.34;5074048;28;20218;-66
2021/09/10 07:37:37;;;;;;;9.83;8.93;;;;;;;20.63;88.14;98086.09;5073728;28;20231;-67
2021/09/10 07:40:04;;;;;;;10.53;9.43;;;;;;;20.72;87.03;98079.66;5073849;28;20223;-66
2021/09/10 07:42:32;;;;;;;12.33;9.77;;;;;;;20.87;86.14;98080.66;5073757;28;20218;-66
2021/09/10 07:44:59;;;;;;;9.83;8.93;;;;;;;21.02;84.91;98081.66;5073801;28;20222;-67
2021/09/10 07:47:25;;;;;;;10.07;8.70;;;;;;;21.12;84.60;98082.31;5073693;28;20210;-67
2021/09/10 07:49:51;;;;;;;10.53;9.50;;;;;;;21.27;83.29;98085.13;5071804;28;20207;-66
2021/09/10 07:52:18;;;;;;;11.63;9.63;;;;;;;21.36;81.82;98084.06;5073733;28;20207;-67
2021/09/10 07:54:44;;;;;;;10.87;9.80;;;;;;;21.54;79.81;98087.34;5073598;28;20208;-67
2021/09/10 07:57:11;;;;;;;11.10;9.90;;;;;;;21.63;81.91;98086.31;5073599;28;20207;-67
2021/09/10 07:59:39;;;;;;;10.70;9.70;;;;;;;21.73;81.66;98093.19;5073333;28;20235;-67
2021/09/10 08:02:05;;;;;;;10.60;9.30;;;;;;;21.84;80.04;98090.09;5073285;28;20677;-67
2021/09/10 08:04:32;;;;;;;10.23;9.17;;;;;;;21.95;78.90;98095.03;5073258;28;20692;-68
2021/09/10 08:06:58;;;;;;;12.77;9.60;;;;;;;22.08;78.26;98089.09;5073285;28;20219;-67
2021/09/10 08:09:25;;;;;;;10.03;9.03;;;;;;;22.16;77.00;98089.03;5073422;28;20203;-67
2021/09/10 08:11:51;;;;;;;9.63;8.63;;;;;;;22.32;75.66;98095.13;5073358;28;20207;-67
2021/09/10 08:14:18;;;;;;;8.90;8.00;;;;;;;22.47;75.96;98108.69;5073244;28;20664;-67
2021/09/10 08:16:46;;;;;;;9.80;8.80;;;;;;;22.56;74.88;98105.72;5071654;28;20208;-66
2021/09/10 08:19:12;;;;;;;8.83;8.03;;;;;;;22.71;75.43;98105.78;5073239;28;20250;-66
2021/09/10 08:21:39;;;;;;;9.10;8.17;;;;;;;22.80;74.57;98102.81;5072979;28;20215;-67
2021/09/10 08:24:09;;;;;;;9.67;8.77;;;;;;;23.00;73.27;98109.38;5073241;28;20228;-67
2021/09/10 08:26:35;;;;;;;8.50;7.70;;;;;;;23.24;73.09;98103.75;5073214;28;20245;-67
2021/09/10 08:29:02;;;;;;;9.23;8.33;;;;;;;23.53;70.33;98109.13;5073326;28;20207;-67
2021/09/10 08:31:28;;;;;;;8.43;7.63;;;;;;;23.87;72.84;98112.09;5073294;28;20200;-67
2021/09/10 08:33:56;;;;;;;9.77;8.87;;;;;;;24.13;69.76;98104.28;5072989;28;20207;-67
2021/09/10 08:36:23;;;;;;;8.63;7.77;;;;;;;24.39;68.74;98112.66;5073256;28;20207;-67
2021/09/10 08:38:50;;;;;;;8.90;7.20;;;;;;;24.49;66.43;98109.63;5073043;28;20239;-67
2021/09/10 08:41:22;;;;;;;8.73;7.43;;;;;;;24.58;64.40;98112.09;5071172;28;20586;-66
2021/09/10 08:43:49;;;;;;;8.17;7.47;;;;;;;24.57;62.79;98115.78;5073098;28;20212;-67
2021/09/10 08:46:16;;;;;;;8.10;7.27;;;;;;;24.61;63.49;98116.22;5073138;28;20208;-67
2021/09/10 08:48:45;;;;;;;8.00;7.20;;;;;;;24.68;63.87;98117.97;5073082;28;20207;-67
2021/09/10 08:51:13;;;;;;;8.20;7.40;;;;;;;24.72;64.26;98124.66;5072798;28;20219;-67
2021/09/10 08:53:40;;;;;;;8.20;7.40;;;;;;;24.74;63.84;98125.31;5072690;28;20214;-67
2021/09/10 08:56:06;;;;;;;7.33;6.43;;;;;;;24.58;62.21;98112.09;5072878;28;20219;-67
2021/09/10 08:58:33;;;;;;;8.03;6.43;;;;;;;24.53;63.14;98114.50;5072628;28;20242;-67
2021/09/10 09:01:00;;;;;;;6.93;6.20;;;;;;;24.42;63.25;98119.56;5072945;28;20214;-67
2021/09/10 09:03:28;;;;;;;6.63;5.97;;;;;;;24.25;62.32;98121.66;5073274;28;20211;-66
2021/09/10 09:05:55;;;;;;;7.27;6.57;;;;;;;24.06;61.68;98116.91;5072849;28;20208;-66
2021/09/10 09:08:23;;;;;;;7.13;6.53;;;;;;;23.75;62.78;98116.28;5071233;28;20208;-66
2021/09/10 09:10:56;;;;;;;7.80;7.00;;;;;;;23.68;62.59;98118.06;5072842;28;20211;-66
2021/09/10 09:13:23;;;;;;;6.67;5.90;;;;;;;23.70;63.97;98120.56;5072808;28;20216;-66
2021/09/10 09:15:50;;;;;;;6.90;6.30;;;;;;;23.72;64.26;98124.75;5072789;28;20219;-67
2021/09/10 09:18:16;;;;;;;7.50;6.80;;;;;;;23.88;62.60;98124.56;5072637;28;20234;-67
2021/09/10 09:20:49;;;;;;;7.57;6.87;;;;;;;23.94;62.46;98114.88;5072428;28;20207;-66
2021/09/10 09:23:15;;;;;;;6.80;6.30;;;;;;;23.98;62.27;98108.91;5072798;28;20223;-66
2021/09/10 09:25:45;;;;;;;7.37;6.67;;;;;;;24.01;62.46;98119.31;5072437;28;20246;-66
2021/09/10 09:28:20;;;;;;;7.10;6.40;;;;;;;24.08;62.05;98112.13;5072625;28;20215;-66
2021/09/10 09:30:50;;;;;;;7.13;6.53;;;;;;;24.07;62.49;98126.66;5072182;28;20691;-66
2021/09/10 09:33:17;;;;;;;6.93;6.33;;;;;;;24.21;61.89;98123.06;5071200;28;20302;-66
2021/09/10 09:35:45;;;;;;;7.60;6.90;;;;;;;24.27;61.56;98119.59;5072735;28;20211;-66
2021/09/10 09:38:14;;;;;;;8.10;7.30;;;;;;;24.36;61.41;98123.88;5072347;28;20231;-67
2021/09/10 09:40:43;;;;;;;8.00;7.30;;;;;;;24.42;61.50;98123.09;5072494;28;20214;-67
2021/09/10 09:43:18;;;;;;;7.77;7.07;;;;;;;24.49;60.85;98121.28;5072403;28;20216;-66
2021/09/10 09:45:47;;;;;;;7.40;6.70;;;;;;;24.56;60.97;98118.66;5074526;28;20250;-66
2021/09/10 09:48:14;;;;;;;7.67;6.97;;;;;;;24.61;61.36;98122.47;5076015;28;20219;-66
2021/09/10 09:50:42;;;;;;;8.37;6.87;;;;;;;24.71;61.59;98123.00;5076048;28;20208;-66
2021/09/10 09:53:09;;;;;;;7.60;6.80;;;;;;;24.72;60.52;98130.06;5075970;28;20576;-66
2021/09/10 09:55:36;;;;;;;7.50;6.80;;;;;;;24.70;59.74;98129.41;5075722;28;20285;-66
2021/09/10 09:58:07;;;;;;;7.47;6.80;;;;;;;24.72;60.69;98130.06;5075926;28;20211;-66
2021/09/10 10:00:34;;;;;;;7.40;6.70;;;;;;;24.84;60.65;98128.53;5074596;28;20217;-67
2021/09/10 10:03:02;;;;;;;7.50;6.80;;;;;;;24.93;60.99;98124.63;5075630;28;20207;-67
2021/09/10 10:05:30;;;;;;;7.60;6.97;;;;;;;24.96;61.66;98132.38;5075666;28;20215;-67
2021/09/10 10:08:02;;;;;;;7.57;6.90;;;;;;;24.82;59.94;98125.16;5075455;28;20214;-66
2021/09/10 10:10:33;;;;;;;7.73;7.03;;;;;;;24.67;61.80;98127.13;5075661;28;20280;-66
2021/09/10 10:13:02;;;;;;;7.50;6.80;;;;;;;24.59;61.75;98124.56;5075771;28;20211;-65
2021/09/10 10:15:30;;;;;;;7.20;6.50;;;;;;;24.52;61.02;98126.34;5075463;28;20207;-66
2021/09/10 10:17:58;;;;;;;7.43;6.80;;;;;;;24.57;61.29;98121.19;5075714;28;20212;-66
2021/09/10 10:20:50;;;;;;;6.97;6.37;;;;;;;24.61;59.89;98117.06;5075601;28;20606;-65
2021/09/10 10:23:55;;;;;;;7.30;6.60;;;;;;;24.80;60.79;98123.72;5075622;28;20211;-66
2021/09/10 10:26:34;;;;;;;7.73;6.83;;;;;;;24.98;60.12;98122.19;5073568;28;20214;-66
2021/09/10 10:29:06;;;;;;;7.40;6.70;;;;;;;25.07;59.03;98123.72;5075104;28;20211;-66
2021/09/10 10:32:08;;;;;;;7.23;6.63;;;;;;;25.15;58.50;98120.00;5075365;28;20208;-66
2021/09/10 10:34:37;;;;;;;7.37;6.67;;;;;;;25.22;58.92;98119.03;5013334;28;20205;-66
2021/09/10 10:37:40;;;;;;;7.37;6.60;;;;;;;25.09;58.32;98116.22;5013161;28;20679;-66
2021/09/10 10:40:25;;;;;;;7.43;6.83;;;;;;;24.96;58.43;98121.56;5056872;28;20794;-66
2021/09/10 10:42:53;;;;;;;7.60;6.90;;;;;;;25.02;59.08;98126.19;5075132;28;20207;-67
2021/09/10 10:46:06;;;;;;;7.57;6.97;;;;;;;25.33;58.95;98112.25;5075031;28;20210;-67
2021/09/10 10:48:50;;;;;;;7.77;7.00;;;;;;;25.55;57.93;98120.09;5074627;28;20219;-66
2021/09/10 10:51:43;;;;;;;7.43;6.70;;;;;;;25.71;56.40;98110.78;5073381;28;20689;-66
2021/09/10 10:54:14;;;;;;;7.63;6.93;;;;;;;25.85;56.80;98116.06;5075052;28;20215;-66
2021/09/10 10:56:45;;;;;;;7.97;7.17;;;;;;;26.03;55.56;98108.25;5074657;28;20215;-66
2021/09/10 10:59:32;;;;;;;7.30;6.60;;;;;;;26.14;54.69;98102.25;5075115;28;20235;-66
2021/09/10 11:02:31;;;;;;;7.10;6.50;;;;;;;26.29;55.88;98102.94;5074469;28;20214;-66
2021/09/10 11:05:13;;;;;;;7.30;6.60;;;;;;;26.32;53.70;98105.22;5074878;28;20215;-66
2021/09/10 11:07:40;;;;;;;7.20;6.50;;;;;;;26.40;51.85;98094.16;5074342;28;20695;-67
2021/09/10 11:10:09;;;;;;;6.67;6.07;;;;;;;26.36;51.68;98090.22;5074264;28;20207;-66
2021/09/10 11:12:37;;;;;;;6.70;6.10;;;;;;;26.36;51.89;98089.38;5074600;28;20203;-66
2021/09/10 11:15:17;;;;;;;6.97;6.27;;;;;;;26.35;53.87;98093.97;5074638;28;20210;-66
2021/09/10 11:17:44;;;;;;;6.77;6.07;;;;;;;26.48;53.65;98087.72;5072819;28;20219;-67
2021/09/10 11:20:12;;;;;;;6.90;6.30;;;;;;;26.61;53.37;98094.03;5074058;28;20239;-67
2021/09/10 11:22:47;;;;;;;6.83;6.23;;;;;;;26.66;52.40;98096.97;5074238;28;20298;-67
2021/09/10 11:25:14;;;;;;;6.80;6.13;;;;;;;26.64;52.13;98088.19;5074470;28;20238;-66